Nearby METAR Reports

 

K8A0 - Albertville Muni, AL
Distance from station: SW 1mi, 2km
Updated: Sat, 19-Jun-2021 12:15am CDT
Partly cloudy
Partly cloudy
 Wind from SSW
Wind: SSW 6 mph , 9 km/h
Temperature: 73°F , 23°C
Dew Point: 66°F , 19°C
Humidity: 78%
Barometer: 30.05 inHg , 1017.6 hPa
Clouds: Partly cloudy
Visibility: 10 miles , 16 km
Cloud details: Partly cloudy 4300 ft
Partly cloudy 5000 ft
2021/06/19 05:15 K8A0 190515Z AUTO 20005KT 10SM SCT043 SCT050 23/19 A3005 RMK AO2
KGAD - Gadsden Muni, AL
Distance from station: SSE 21mi, 35km
Updated: Fri, 18-Jun-2021 11:56pm CDT
Clear
Clear
 Wind from calm
Wind: Calm
Temperature: 73°F , 23°C
Dew Point: 70°F , 21°C
Humidity: 89%
Barometer: 30.05 inHg , 1017.6 hPa
Clouds: Clear
Visibility: 10 miles , 16 km
2021/06/19 04:56 KGAD 190456Z AUTO 00000KT 10SM CLR 23/21 A3005 RMK AO2 SLP174 T02330206
 
K4A6 - Scottsboro, AL
Distance from station: NNE 33mi, 53km
Updated: Sat, 19-Jun-2021 12:15am CDT
Mostly cloudy
Mostly cloudy
 Wind from calm
Wind: Calm
Temperature: 72°F , 22°C
Dew Point: 72°F , 22°C
Humidity: 100%
Barometer: 30.04 inHg , 1017.3 hPa
Clouds: Mostly cloudy
Visibility: 10 miles , 16 km
Cloud details: Few Clouds 2800 ft
Few Clouds 3500 ft
Mostly cloudy 4500 ft
2021/06/19 05:15 K4A6 190515Z AUTO 00000KT 10SM FEW028 FEW035 BKN045 22/22 A3004 RMK AO2
K4A9 - Ft Payne, AL
Distance from station: ENE 33mi, 54km
Updated: Sat, 19-Jun-2021 12:15am CDT
Clear
Clear
 Wind from N
Wind: N 3 mph , 6 km/h
Temperature: 68°F , 20°C
Dew Point: 64°F , 18°C
Humidity: 88%
Barometer: 30.05 inHg , 1017.6 hPa
Clouds: Clear
Visibility: 10 miles , 16 km
2021/06/19 05:15 K4A9 190515Z AUTO 01003KT 10SM CLR 20/18 A3005 RMK AO2 T01960183
 
KMDQ - Huntsville, AL
Distance from station: NNW 47mi, 75km
Updated: Sat, 19-Jun-2021 12:15am CDT
Clear
Clear
 Wind from S
Wind: S 8 mph , 13 km/h
Temperature: 77°F , 25°C
Dew Point: 66°F , 19°C
Humidity: 69%
Barometer: 30.03 inHg , 1016.9 hPa
Clouds: Clear
Visibility: 10 miles , 16 km
2021/06/19 05:15 KMDQ 190515Z AUTO 19007KT 10SM CLR 25/19 A3003 RMK A02 T02490186
KDCU - Decatur, AL
Distance from station: NW 49mi, 80km
Updated: Fri, 18-Jun-2021 11:53pm CDT
Clear
Clear
 Wind from S
Wind: S 8 mph , 13 km/h
Temperature: 77°F , 25°C
Dew Point: 66°F , 19°C
Humidity: 69%
Barometer: 30.03 inHg , 1016.9 hPa
Clouds: Clear
Visibility: 10 miles , 16 km
2021/06/19 04:53 KDCU 190453Z AUTO 19007KT 10SM CLR 25/19 A3003 RMK AO2 SLP161 T02500194
 
KGKT - Sevierville, TN
Distance from station: NE 235mi, 378km
Updated: Sat, 19-Jun-2021 12:15am CDT
Few Clouds
Few Clouds
 Wind from ENE
Wind: ENE 5 mph , 7 km/h
Temperature: 70°F , 21°C
Dew Point: 63°F , 17°C
Humidity: 78%
Barometer: 30.05 inHg , 1017.6 hPa
Clouds: Few Clouds
Visibility: 10 miles , 16 km
Cloud details: Few Clouds 5000 ft
2021/06/19 05:15 KGKT 190515Z AUTO 07004KT 10SM FEW050 21/17 A3005 RMK A01
KSSI - Jeckyll Island, GA
Distance from station: SE 467mi, 752km
Updated: Fri, 18-Jun-2021 11:53pm CDT
Clear
Clear
 Wind from W
Wind: W 5 mph , 7 km/h
Temperature: 77°F , 25°C
Dew Point: 73°F , 23°C
Humidity: 89%
Barometer: 30.05 inHg , 1017.6 hPa
Clouds: Clear
Visibility: 10 miles , 16 km
2021/06/19 04:53 KSSI 190453Z AUTO 26004KT 10SM CLR 25/23 A3005 RMK AO2 SLP178 T02500228 403060244
 
KECP - Panama City, FL
Distance from station: S 330mi, 531km
Updated: Fri, 18-Jun-2021 11:53pm CDT
Mostly cloudy
Mostly cloudy
 Wind from E
Wind: E 5 mph , 7 km/h
Temperature: 79°F , 26°C
Dew Point: 75°F , 24°C
Humidity: 89%
Barometer: 30.02 inHg , 1016.6 hPa
Clouds: Mostly cloudy
Visibility: 10 miles , 16 km
Cloud details: Few Clouds 1900 ft
Mostly cloudy 10000 ft
Mostly cloudy 12000 ft
2021/06/19 04:53 KECP 190453Z AUTO 09004KT 10SM FEW019 BKN100 BKN120 26/24 A3002 RMK AO2 RAB04E28 SLP176 P0000 T02560239 403060233
KTPA - Tampa, FL,
Distance from station: S 600mi, 965km
Updated: Fri, 18-Jun-2021 11:53pm CDT
Partly cloudy
Partly cloudy
 Wind from varies
Wind: varies 6 mph , 9 km/h
Temperature: 82°F , 28°C
Heat Index: 87°F , 31°C
Dew Point: 73°F , 23°C
Humidity: 74%
Barometer: 30.07 inHg , 1018.3 hPa
Clouds: Partly cloudy
Visibility: 10 miles , 16 km
Cloud details: Partly cloudy 19000 ft
2021/06/19 04:53 KTPA 190453Z VRB05KT 10SM SCT190 28/23 A3007 RMK AO2 SLP183 T02830228 403110250
 
KMTH - Marathon, FL,
Distance from station: S 915mi, 1473km
Updated: Fri, 18-Jun-2021 11:53pm CDT
Clear
Clear
 Wind from E
Wind: E 8 mph , 13 km/h
Temperature: 82°F , 28°C
Heat Index: 89°F , 32°C
Dew Point: 75°F , 24°C
Humidity: 79%
Barometer: 30.05 inHg , 1017.6 hPa
Clouds: Clear
Visibility: 9 miles , 14 km
2021/06/19 04:53 KMTH 190453Z AUTO 09007KT 9SM CLR 28/24 A3005 RMK AO2 SLP175 T02830244 403220278
KNYL - Yuma, AZ
Distance from station: W 3147mi, 5065km
Updated: Fri, 18-Jun-2021 11:57pm CDT
Clear
Clear
 Wind from S
Wind: S 7 mph , 11 km/h
Temperature: 93°F , 34°C
Dew Point: 50°F , 10°C
Humidity: 23%
Barometer: 29.57 inHg , 1001.4 hPa
Clouds: Clear
Visibility: 7 miles , 11 km
2021/06/19 04:57 KNYL 190457Z 19006KT 7SM CLR 34/10 A2957 RMK AO2 SLP010 T03440100 $
 
PABI - Ft. Greely, AK
Distance from station: NW 4300mi, 7167km
Updated: Fri, 18-Jun-2021 11:53pm CDT
Overcast
Overcast
 Wind from NNW
Wind: NNW 5 mph , 7 km/h
Temperature: 70°F , 21°C
Dew Point: 45°F , 7°C
Humidity: 40%
Barometer: 29.94 inHg , 1013.9 hPa
Clouds: Overcast
Visibility: 10 miles , 16 km
Cloud details: Partly cloudy 6000 ft
Partly cloudy 7000 ft
Overcast 20000 ft
2021/06/19 04:53 PABI 190453Z 33004KT 10SM SCT060 SCT070 OVC200 21/07 A2994 RMK AO2 SLP138 SHRA DSNT NE-E-SE-S-SW T02060067